Junction City, CA

11:02 AM PDT on August 29, 2014 (GMT -0700)
Arcata | Change Station
CLOSE
Current Station
Airport
Location: Arcata,
Elevation: 217 ft
Nearby Weather Stations

Elev 217 ft 40.98 °N, 124.10 °W | Updated 9 minutes ago

Overcast
Overcast
59 °F
Feels Like 59 °F
N
5
Wind Variable Wind from South

Today
High -- | Low -- °F
--% Chance of Precip.
Yesterday
High -- | Low -- °F
Precip. -- in
6:36 AM 7:49 PM
Waxing Crescent, 15% visible
Pressure 30.04 in
Visibility 10.0 miles
Clouds Overcast 500 ft
Dew Point 56 °F
Humidity 90%
Rainfall 0.00 in
Snow Depth Not available.
UV 2 out of 12
Pollen 8.80 out of 12
Air Quality Not available.
Flu Activity Not available.
METAR KACV 291753Z AUTO 17004KT 10SM OVC005 15/13 A3002 RMK AO2 SLP170 T01500133 10150 20128 50002

More Conditions Fewer Conditions

Pressure 30.04 in
Visibility 10.0 miles
Clouds Overcast 500 ft
Dew Point 56 °F
Humidity 90%
Rainfall 0.00 in
Snow Depth Not available.
UV 2 out of 12
Pollen 8.80 out of 12
Air Quality Not available.
Flu Activity Not available.
METAR KACV 291753Z AUTO 17004KT 10SM OVC005 15/13 A3002 RMK AO2 SLP170 T01500133 10150 20128 50002

More Conditions Fewer Conditions

10-Day Weather Forecast

Almanac

Astronomy

Aug. 29, 2014 Rise Set
Actual Time 6:36 AM PDT 7:49 PM PDT
Civil Twilight 6:08 AM PDT 8:17 PM PDT
Nautical Twilight 5:34 AM PDT 8:51 PM PDT
Astronomical Twilight 4:58 AM PDT 9:26 PM PDT
Moon 10:32 AM PDT 9:48 PM PDT
Length of Visible Light 14h 09m
Length of Day
13h 12m
Tomorrow will be 2m 33s shorter.
Waxing Crescent, 15% of the Moon is Illuminated
Today
Waxing Crescent
Sep 2
First Quarter
Sep 8
Full
Sep 15
Last Quarter
Sep 24
New

Today's Extremes

State Highs State Lows

Community

WunderPhotos

Upload Photos

1,748,307 photos uploaded!

Nearby

Snow Depth

Station Depth Elevation
Adin Mountain 0 in 6200 ft
Cedar Pass 0 in 7100 ft
CSS Lab 0 in 6900 ft
Fallen Leaf 0 in 6300 ft
Echo Peak 0 in 7800 ft

Earthquake Activity

City Distance Mag. Time & Date
The Geysers, California 132 miles 2.6 7:42 AM PDT
2014-08-27
Minimum magnitude displayed is 2.5.

Coastal Water Temperatures

Place Temperature
No Stations Reporting

Nearby Weather Stations